Time;durP1;ratioP1;P1;durP2;ratioP2;P2;SDS_P1;SDS_P2;PMS_P1;PMS_P2;Temp;Humidity;BMP_temperature;BMP_pressure;BME280_temperature;BME280_humidity;BME280_pressure;Samples;Min_cycle;Max_cycle;Signal;HPM_P1;HPM_P2
2021/12/14 00:02:15;;;;;;;19.80;12.65;;;;;;;12.09;48.82;96316.50;5090857;28;20043;-68
2021/12/14 00:04:42;;;;;;;25.85;13.00;;;;;;;12.56;48.91;96376.22;5090873;28;20016;-67
2021/12/14 00:07:11;;;;;;;20.25;13.35;;;;;;;12.19;49.28;96313.69;5089383;28;20019;-67
2021/12/14 00:09:40;;;;;;;40.63;14.63;;;;;;;12.59;49.27;96380.97;5089672;28;20052;-68
2021/12/14 00:15:06;;;;;;;22.48;10.80;;;;;;;12.12;49.05;96313.22;5090807;28;20055;-68
2021/12/14 00:17:41;;;;;;;23.70;9.35;;;;;;;12.42;48.69;96371.56;5090745;28;20024;-67
2021/12/14 00:20:14;;;;;;;27.48;10.13;;;;;;;12.18;49.05;96344.91;5089930;28;20085;-66
2021/12/14 00:25:23;;;;;;;24.65;9.05;;;;;;;11.69;48.39;96297.94;5090356;28;20478;-66
2021/12/14 00:27:48;;;;;;;16.17;9.13;;;;;;;11.54;48.60;96284.78;5090640;28;20378;-69
2021/12/14 00:30:14;;;;;;;20.08;9.50;;;;;;;11.83;48.55;96335.44;5089637;28;20054;-68
2021/12/14 00:32:40;;;;;;;13.68;8.80;;;;;;;11.60;48.53;96296.97;5090057;28;20032;-68
2021/12/14 00:35:13;;;;;;;30.70;9.65;;;;;;;11.87;48.76;96367.63;5090426;28;20531;-66
2021/12/14 00:37:46;;;;;;;21.25;8.43;;;;;;;11.60;48.95;96386.78;5089456;28;20037;-69
2021/12/14 00:40:27;;;;;;;84.32;9.60;;;;;;;10.81;50.84;96365.50;5089634;28;20566;-67
2021/12/14 00:42:54;;;;;;;93.40;9.80;;;;;;;10.35;51.67;96392.31;5090121;28;20082;-68
2021/12/14 00:45:22;;;;;;;56.75;10.13;;;;;;;9.56;52.63;96321.22;5088892;28;20118;-69
2021/12/14 00:47:49;;;;;;;30.55;8.75;;;;;;;10.54;52.16;96381.03;5090348;28;20397;-67
2021/12/14 00:50:15;;;;;;;44.83;7.95;;;;;;;10.51;52.10;96389.59;5089558;28;20030;-67
2021/12/14 00:52:42;;;;;;;21.27;7.10;;;;;;;10.37;51.18;96339.63;5089062;28;20107;-67
2021/12/14 00:55:11;;;;;;;19.48;6.78;;;;;;;10.51;51.91;96382.41;5089775;28;20530;-67
2021/12/14 00:57:37;;;;;;;23.30;7.05;;;;;;;10.54;50.98;96351.78;5088477;28;20027;-67
2021/12/14 01:00:09;;;;;;;15.45;6.75;;;;;;;10.82;50.23;96363.63;5089485;28;20024;-67
2021/12/14 01:02:35;;;;;;;18.63;6.78;;;;;;;10.78;50.49;96335.97;5089819;28;20024;-67
2021/12/14 01:05:13;;;;;;;15.63;7.07;;;;;;;10.99;50.23;96364.03;5090117;28;20024;-67
2021/12/14 01:07:39;;;;;;;17.95;5.45;;;;;;;11.14;49.62;96389.78;5089048;28;20117;-67
2021/12/14 01:10:15;;;;;;;43.53;6.35;;;;;;;10.99;49.75;96363.25;5088889;28;20059;-67
2021/12/14 01:12:49;;;;;;;19.40;6.18;;;;;;;10.93;49.75;96349.19;5089964;28;20030;-67
2021/12/14 01:15:28;;;;;;;31.95;6.13;;;;;;;10.92;50.04;96347.59;5088964;28;20035;-67
2021/12/14 01:18:17;;;;;;;16.23;5.75;;;;;;;10.38;49.57;96274.72;5089825;28;20020;-67
2021/12/14 01:20:49;;;;;;;24.83;5.45;;;;;;;10.99;49.08;96357.94;5087972;28;20068;-68
2021/12/14 01:23:25;;;;;;;44.17;6.35;;;;;;;11.12;49.39;96382.06;5088641;28;20028;-67
2021/12/14 01:25:56;;;;;;;11.90;4.90;;;;;;;10.94;48.67;96351.56;5089177;28;20027;-67
2021/12/14 01:28:26;;;;;;;24.38;4.28;;;;;;;10.81;49.26;96368.16;5089068;28;20016;-67
2021/12/14 01:31:15;;;;;;;5.68;4.07;;;;;;;10.96;48.66;96393.91;5089453;28;20028;-67
2021/12/14 01:33:46;;;;;;;10.52;3.60;;;;;;;10.06;48.85;96269.81;5088168;28;20016;-67
2021/12/14 01:36:37;;;;;;;33.10;4.57;;;;;;;9.22;51.34;96368.78;5089659;28;20474;-67
2021/12/14 01:41:50;;;;;;;12.70;3.90;;;;;;;9.34;51.94;96391.34;5089305;28;20028;-67
2021/12/14 01:44:16;;;;;;;10.77;3.88;;;;;;;9.61;51.29;96366.38;5090597;28;20111;-68
2021/12/14 01:46:55;;;;;;;5.45;3.47;;;;;;;9.89;50.87;96367.69;5093479;28;20478;-68
2021/12/14 01:49:24;;;;;;;3.63;3.00;;;;;;;10.30;50.29;96402.16;5093952;28;20051;-67
2021/12/14 01:51:52;;;;;;;10.27;3.22;;;;;;;10.13;49.92;96378.50;5093186;28;20157;-66
2021/12/14 01:54:24;;;;;;;21.65;4.00;;;;;;;10.30;50.12;96394.97;5093133;28;20449;-66
2021/12/14 01:56:50;;;;;;;50.17;4.72;;;;;;;10.34;49.22;96406.69;5093012;28;20035;-66
2021/12/14 01:59:23;;;;;;;15.50;3.70;;;;;;;10.14;49.98;96356.97;5092479;28;20047;-66
2021/12/14 02:02:07;;;;;;;52.63;4.47;;;;;;;10.40;50.33;96392.28;5093035;28;20028;-66
2021/12/14 02:04:34;;;;;;;67.43;5.18;;;;;;;10.54;50.09;96402.34;5092006;28;20393;-66
2021/12/14 02:07:02;;;;;;;48.20;4.35;;;;;;;10.32;49.74;96368.91;5092159;28;20082;-66
2021/12/14 02:09:31;;;;;;;45.47;4.38;;;;;;;10.46;50.19;96410.88;5092070;28;20489;-66
2021/12/14 02:12:01;;;;;;;34.55;4.97;;;;;;;10.53;50.40;96409.53;5091883;28;20061;-66
2021/12/14 02:14:28;;;;;;;19.40;4.25;;;;;;;10.57;49.77;96415.09;5091492;28;20032;-67
2021/12/14 02:16:58;;;;;;;89.93;5.80;;;;;;;9.94;49.88;96325.16;5092797;28;20500;-66
2021/12/14 02:19:24;;;;;;;39.13;4.65;;;;;;;9.95;50.04;96316.09;5092289;28;20027;-66
2021/12/14 02:21:52;;;;;;;31.33;5.03;;;;;;;10.38;49.92;96409.56;5092669;28;20354;-67
2021/12/14 02:24:23;;;;;;;222.15;8.95;;;;;;;10.41;50.23;96385.09;5091846;28;20486;-66
2021/12/14 02:26:51;;;;;;;97.35;6.50;;;;;;;10.25;50.46;96368.41;5092383;28;20107;-67
2021/12/14 02:29:28;;;;;;;28.10;4.22;;;;;;;10.35;50.23;96370.25;5091998;28;20024;-66
2021/12/14 02:32:02;;;;;;;23.98;4.10;;;;;;;10.12;50.02;96331.72;5092702;28;20134;-66
2021/12/14 02:34:28;;;;;;;35.05;4.32;;;;;;;10.49;50.08;96399.69;5092647;28;20115;-66
2021/12/14 02:36:53;;;;;;;24.52;4.20;;;;;;;10.36;50.29;96356.66;5092350;28;20055;-66
2021/12/14 02:42:08;;;;;;;125.15;6.32;;;;;;;10.26;50.18;96347.94;5092416;28;20448;-68
2021/12/14 02:44:34;;;;;;;40.15;4.88;;;;;;;10.47;50.52;96381.34;5092505;28;20028;-66
2021/12/14 02:47:06;;;;;;;44.47;5.15;;;;;;;10.53;49.93;96368.81;5090968;28;20031;-69
2021/12/14 02:49:33;;;;;;;83.60;6.03;;;;;;;10.61;50.70;96387.69;5091834;28;20474;-68
2021/12/14 02:52:06;;;;;;;56.90;5.85;;;;;;;10.35;50.62;96336.47;5092167;28;20066;-68
2021/12/14 02:54:39;;;;;;;58.08;5.45;;;;;;;10.47;50.37;96360.06;5088455;28;20078;-69
2021/12/14 02:57:11;;;;;;;83.10;5.97;;;;;;;10.04;50.23;96292.41;5083601;28;20024;-69
2021/12/14 02:59:39;;;;;;;64.47;5.40;;;;;;;10.68;50.77;96376.72;5091341;28;20027;-66
2021/12/14 03:02:11;;;;;;;54.80;5.40;;;;;;;10.60;50.47;96374.66;5090755;28;20389;-66
2021/12/14 03:04:44;;;;;;;42.72;4.82;;;;;;;10.49;49.96;96378.41;5092140;28;20024;-66
2021/12/14 03:07:12;;;;;;;48.95;4.93;;;;;;;10.15;49.87;96315.22;5091196;28;20462;-66
2021/12/14 03:12:21;;;;;;;100.82;5.70;;;;;;;10.43;49.50;96380.28;5085246;28;20099;-66
2021/12/14 03:14:55;;;;;;;49.03;4.55;;;;;;;9.87;50.08;96359.94;5092078;28;20024;-66
2021/12/14 03:17:21;;;;;;;116.53;5.60;;;;;;;9.32;52.06;96374.09;5091593;28;20093;-66
2021/12/14 03:20:09;;;;;;;38.42;5.65;;;;;;;9.34;52.33;96292.31;5091074;28;20465;-69
2021/12/14 03:23:04;;;;;;;125.72;6.88;;;;;;;9.88;51.99;96353.59;5091386;28;20024;-65
2021/12/14 03:25:31;;;;;;;202.60;9.00;;;;;;;10.13;51.23;96384.63;5088094;28;20028;-64
2021/12/14 03:27:58;;;;;;;48.05;5.13;;;;;;;10.04;51.99;96353.56;5091443;28;20021;-64
2021/12/14 03:30:23;;;;;;;111.00;8.13;;;;;;;10.30;51.65;96376.38;5089457;28;20028;-64
2021/12/14 03:32:49;;;;;;;124.40;7.22;;;;;;;10.35;51.34;96375.56;5091486;28;20547;-66
2021/12/14 03:35:17;;;;;;;91.20;6.78;;;;;;;10.36;51.21;96369.97;5091495;28;20032;-64
2021/12/14 03:37:43;;;;;;;57.72;6.05;;;;;;;10.45;51.17;96377.38;5089018;28;20393;-65
2021/12/14 03:40:09;;;;;;;60.67;6.57;;;;;;;10.53;51.29;96390.91;5088561;28;20028;-64
2021/12/14 03:42:39;;;;;;;53.65;5.97;;;;;;;10.53;51.10;96371.47;5090129;28;20031;-65
2021/12/14 03:45:13;;;;;;;77.78;6.53;;;;;;;10.46;51.18;96341.72;5089879;28;20028;-65
2021/12/14 03:47:43;;;;;;;63.75;5.88;;;;;;;10.49;50.15;96359.78;5091172;28;20530;-66
2021/12/14 03:50:22;;;;;;;47.50;5.63;;;;;;;10.65;51.20;96380.75;5090494;28;20115;-64
2021/12/14 03:52:48;;;;;;;55.80;5.68;;;;;;;10.53;50.79;96364.28;5088189;28;20107;-64
2021/12/14 03:55:19;;;;;;;45.00;5.97;;;;;;;10.68;50.56;96387.38;5090769;28;20024;-64
2021/12/14 03:57:45;;;;;;;57.17;6.13;;;;;;;10.58;50.89;96360.81;5090909;28;20401;-66
2021/12/14 04:00:18;;;;;;;64.57;6.05;;;;;;;10.51;50.63;96358.47;5090237;28;20039;-64
2021/12/14 04:02:44;;;;;;;56.53;5.10;;;;;;;10.39;50.21;96331.41;5089914;28;20032;-67
2021/12/14 04:05:12;;;;;;;67.65;6.82;;;;;;;10.51;50.66;96355.00;5091094;28;20489;-65
2021/12/14 04:07:41;;;;;;;43.97;5.28;;;;;;;10.65;50.52;96372.75;5088449;28;20035;-64
2021/12/14 04:10:22;;;;;;;55.97;5.13;;;;;;;10.62;51.05;96367.19;5083029;28;20024;-64
2021/12/14 04:12:47;;;;;;;43.28;5.28;;;;;;;10.81;50.04;96386.78;5090886;28;20031;-66
2021/12/14 04:15:13;;;;;;;50.88;5.63;;;;;;;10.55;50.09;96329.44;5090694;28;20031;-67
2021/12/14 04:17:39;;;;;;;15.95;5.03;;;;;;;10.78;49.60;96365.25;5091021;28;20519;-67
2021/12/14 04:20:22;;;;;;;87.00;5.43;;;;;;;10.67;50.28;96353.84;5089879;28;20363;-65
2021/12/14 04:22:49;;;;;;;36.80;4.78;;;;;;;10.65;49.79;96351.47;5089714;28;20032;-65
2021/12/14 04:25:18;;;;;;;26.45;5.20;;;;;;;10.55;49.77;96346.22;5090324;28;20024;-65
2021/12/14 04:27:44;;;;;;;17.58;4.75;;;;;;;10.59;50.15;96347.22;5090326;28;20099;-65
2021/12/14 04:30:13;;;;;;;59.08;5.50;;;;;;;10.85;50.02;96371.03;5089648;28;20025;-65
2021/12/14 04:32:38;;;;;;;89.80;5.82;;;;;;;10.51;49.96;96328.41;5089395;28;20082;-65
2021/12/14 04:35:07;;;;;;;25.70;4.45;;;;;;;10.09;49.74;96248.00;5089151;28;20427;-65
2021/12/14 04:37:38;;;;;;;42.63;4.93;;;;;;;10.54;49.67;96315.34;5088578;28;20020;-65
2021/12/14 04:53:47;;;;;;;13.55;3.50;;;;;;;10.71;49.81;96343.47;5089329;28;20096;-65
2021/12/14 04:56:19;;;;;;;25.45;3.78;;;;;;;10.53;49.85;96331.56;5089523;28;20051;-65
2021/12/14 04:58:51;;;;;;;38.85;4.32;;;;;;;10.33;49.58;96306.66;5088332;28;20034;-67
2021/12/14 05:01:17;;;;;;;20.33;4.05;;;;;;;10.25;49.12;96299.28;5089804;28;20082;-68
2021/12/14 05:03:48;;;;;;;12.00;3.95;;;;;;;10.57;50.03;96353.91;5089716;28;20124;-67
2021/12/14 05:11:10;;;;;;;23.83;4.07;;;;;;;10.34;50.10;96334.06;5089114;28;20093;-65
2021/12/14 05:13:45;;;;;;;17.38;4.30;;;;;;;10.54;49.72;96349.91;5089426;28;20101;-66
2021/12/14 05:16:27;;;;;;;13.00;3.88;;;;;;;10.35;49.34;96320.50;5089492;28;20023;-65
2021/12/14 05:18:56;;;;;;;63.20;4.57;;;;;;;10.37;49.57;96341.50;5090033;28;20024;-66
2021/12/14 05:21:30;;;;;;;6.63;3.30;;;;;;;10.40;50.07;96352.38;5089843;28;20115;-68
2021/12/14 05:23:57;;;;;;;46.47;4.80;;;;;;;10.22;49.05;96337.00;5088582;28;20077;-66
2021/12/14 05:26:23;;;;;;;18.00;3.70;;;;;;;9.88;50.25;96287.16;5089224;28;20048;-67
2021/12/14 05:28:49;;;;;;;24.55;4.00;;;;;;;9.74;49.63;96363.19;5088965;28;20185;-68
2021/12/14 05:31:14;;;;;;;19.98;4.00;;;;;;;9.66;50.66;96366.38;5089060;28;20031;-67
2021/12/14 05:33:41;;;;;;;24.98;4.07;;;;;;;9.56;51.37;96361.88;5089453;28;20020;-67
2021/12/14 05:36:12;;;;;;;34.70;5.22;;;;;;;9.61;51.22;96321.22;5089764;28;20016;-68
2021/12/14 05:38:55;;;;;;;60.58;5.78;;;;;;;9.59;50.53;96331.31;5088266;28;20020;-68
2021/12/14 05:44:23;;;;;;;61.22;5.38;;;;;;;9.66;50.56;96323.88;5082335;28;20039;-65
2021/12/14 05:46:51;;;;;;;10.35;4.63;;;;;;;9.82;50.84;96330.72;5087842;28;20020;-66
2021/12/14 05:49:24;;;;;;;14.30;5.07;;;;;;;9.75;51.03;96321.47;5088468;28;20028;-66
2021/12/14 05:51:51;;;;;;;12.43;4.80;;;;;;;9.53;50.34;96285.38;5088944;28;20020;-65
2021/12/14 05:54:29;;;;;;;38.00;5.57;;;;;;;9.87;50.61;96330.72;5086970;28;20424;-64
2021/12/14 05:56:57;;;;;;;45.45;4.80;;;;;;;9.83;50.14;96331.56;5087803;28;20020;-65
2021/12/14 05:59:27;;;;;;;23.23;5.30;;;;;;;9.70;50.44;96311.66;5088655;28;20636;-66
2021/12/14 06:01:54;;;;;;;16.45;4.43;;;;;;;9.54;50.93;96299.47;5088089;28;20387;-65
2021/12/14 06:04:19;;;;;;;10.68;4.65;;;;;;;9.62;50.07;96307.69;5089378;28;20032;-66
2021/12/14 06:06:53;;;;;;;25.65;4.97;;;;;;;9.72;50.55;96341.38;5089232;28;20024;-63
2021/12/14 06:09:27;;;;;;;10.77;4.13;;;;;;;9.71;50.09;96339.00;5087719;28;20045;-63
2021/12/14 06:11:57;;;;;;;10.93;4.30;;;;;;;9.69;50.41;96336.63;5088813;28;20073;-64
2021/12/14 06:14:26;;;;;;;10.35;4.60;;;;;;;9.30;50.76;96288.59;5088791;28;20533;-64
2021/12/14 06:16:56;;;;;;;13.38;5.75;;;;;;;9.47;50.05;96317.50;5087807;28;20031;-64
2021/12/14 06:19:27;;;;;;;5.93;4.45;;;;;;;9.55;50.22;96327.59;5088773;28;20504;-65
2021/12/14 06:22:03;;;;;;;7.32;4.47;;;;;;;9.46;50.44;96310.63;5090315;28;20035;-62
2021/12/14 06:24:31;;;;;;;11.55;5.35;;;;;;;9.46;50.57;96303.44;5083062;28;20126;-64
2021/12/14 06:27:00;;;;;;;7.25;5.03;;;;;;;9.41;50.50;96300.78;5088617;28;20076;-65
2021/12/14 06:29:50;;;;;;;11.40;5.47;;;;;;;9.35;50.25;96305.31;5086977;28;20497;-66
2021/12/14 06:32:23;;;;;;;18.17;5.45;;;;;;;9.40;50.37;96304.50;5091948;28;20654;-63
2021/12/14 06:35:01;;;;;;;64.00;6.80;;;;;;;8.68;50.73;96316.97;5092357;28;20034;-64
2021/12/14 06:40:22;;;;;;;69.63;6.90;;;;;;;7.81;53.01;96289.34;5090841;28;20093;-63
2021/12/14 06:42:50;;;;;;;54.13;6.20;;;;;;;6.68;57.63;96330.06;5090736;28;20028;-67
2021/12/14 06:45:20;;;;;;;55.10;6.95;;;;;;;6.34;58.85;96321.50;5091948;28;20103;-64
2021/12/14 06:47:49;;;;;;;26.70;6.35;;;;;;;6.45;58.65;96319.81;5092229;28;20020;-64
2021/12/14 06:50:28;;;;;;;20.55;5.97;;;;;;;6.80;57.72;96305.31;5080905;28;20032;-64
2021/12/14 06:53:07;;;;;;;11.40;5.60;;;;;;;7.18;57.05;96297.19;5090564;28;20400;-64
2021/12/14 06:55:34;;;;;;;24.75;6.30;;;;;;;7.70;55.68;96306.25;5095897;28;20032;-64
2021/12/14 06:58:31;;;;;;;18.23;5.97;;;;;;;7.88;55.52;96297.03;5091537;28;20024;-66
2021/12/14 07:01:06;;;;;;;28.25;7.55;;;;;;;7.97;54.92;96304.25;5075223;28;20089;-64
2021/12/14 07:03:55;;;;;;;42.13;7.05;;;;;;;8.04;55.02;96298.72;5090589;28;20023;-65
2021/12/14 07:06:33;;;;;;;54.40;5.60;;;;;;;7.95;54.09;96292.31;5089795;28;20032;-64
2021/12/14 07:09:07;;;;;;;58.45;6.88;;;;;;;8.03;54.00;96286.50;5088021;28;20512;-64
2021/12/14 07:11:33;;;;;;;59.95;7.38;;;;;;;8.29;53.42;96306.78;5091494;28;20039;-66
2021/12/14 07:14:02;;;;;;;33.75;6.18;;;;;;;8.41;53.21;96288.00;5091768;28;20024;-65
2021/12/14 07:16:37;;;;;;;17.80;5.85;;;;;;;8.60;52.94;96275.06;5091597;28;20357;-66
2021/12/14 07:19:05;;;;;;;18.33;6.97;;;;;;;8.57;52.30;96299.44;5089567;28;20032;-66
2021/12/14 07:21:45;;;;;;;17.63;5.95;;;;;;;8.14;52.99;96304.06;5089951;28;20485;-65
2021/12/14 07:24:22;;;;;;;10.25;6.50;;;;;;;8.42;52.62;96294.09;5087617;28;20473;-64
2021/12/14 07:27:19;;;;;;;6.53;5.82;;;;;;;8.75;52.76;96303.44;5090170;28;20020;-66
2021/12/14 07:29:45;;;;;;;5.95;5.18;;;;;;;8.79;52.64;96293.91;5089652;28;20477;-65
2021/12/14 07:32:10;;;;;;;5.55;4.45;;;;;;;8.94;52.42;96306.38;5091270;28;20034;-65
2021/12/14 07:34:36;;;;;;;8.18;5.25;;;;;;;7.91;53.35;96299.19;5090019;28;20056;-65
2021/12/14 07:37:01;;;;;;;7.95;5.65;;;;;;;8.12;53.96;96305.38;5090039;28;20039;-65
2021/12/14 07:39:27;;;;;;;6.70;5.88;;;;;;;8.02;54.51;96300.81;5087241;28;20058;-66
2021/12/14 07:41:56;;;;;;;8.55;5.65;;;;;;;7.23;55.26;96314.94;5089794;28;20077;-66
2021/12/14 07:44:26;;;;;;;8.90;5.97;;;;;;;7.57;56.47;96333.94;5090930;28;20028;-65
2021/12/14 07:47:07;;;;;;;10.63;5.07;;;;;;;8.34;54.96;96335.94;5089669;28;20028;-66
2021/12/14 07:49:35;;;;;;;45.60;5.90;;;;;;;8.47;54.31;96340.00;5089047;28;20031;-65
2021/12/14 07:52:14;;;;;;;40.05;6.32;;;;;;;8.27;54.47;96339.88;5090924;28;20024;-65
2021/12/14 07:54:44;;;;;;;69.75;7.10;;;;;;;8.73;54.02;96346.16;5089946;28;20026;-65
2021/12/14 07:57:18;;;;;;;152.60;8.65;;;;;;;7.59;55.20;96329.22;5089427;28;20478;-65
2021/12/14 07:59:50;;;;;;;178.55;9.20;;;;;;;6.68;58.87;96347.78;5089961;28;20036;-65
2021/12/14 08:02:17;;;;;;;99.93;8.52;;;;;;;7.92;57.02;96348.47;5090779;28;20099;-65
2021/12/14 08:04:48;;;;;;;151.95;9.82;;;;;;;6.92;58.71;96348.28;5090598;28;20024;-65
2021/12/14 08:07:26;;;;;;;66.78;7.13;;;;;;;6.93;59.08;96363.09;5089737;28;20035;-65
2021/12/14 08:09:54;;;;;;;72.03;6.32;;;;;;;6.70;59.77;96366.81;5087735;28;20026;-65
2021/12/14 08:12:42;;;;;;;77.20;7.15;;;;;;;7.46;57.98;96372.81;5090708;28;20020;-64
2021/12/14 08:15:28;;;;;;;87.95;6.40;;;;;;;7.18;58.44;96362.53;5064428;28;20036;-67
2021/12/14 08:18:04;;;;;;;65.13;7.05;;;;;;;7.49;57.40;96359.06;5070861;28;20078;-65
2021/12/14 08:20:31;;;;;;;18.35;5.70;;;;;;;7.35;57.65;96357.91;5068696;28;20020;-65
2021/12/14 08:23:10;;;;;;;14.30;5.57;;;;;;;8.07;56.79;96340.59;5069949;28;20033;-66
2021/12/14 08:25:36;;;;;;;11.55;5.82;;;;;;;8.06;56.52;96344.31;5086535;28;20431;-64
2021/12/14 08:28:05;;;;;;;7.20;4.93;;;;;;;9.29;54.96;96337.44;5090193;28;20024;-66
2021/12/14 08:30:33;;;;;;;6.18;4.97;;;;;;;9.69;53.66;96327.84;5090156;28;20022;-65
2021/12/14 08:32:58;;;;;;;12.07;5.43;;;;;;;9.25;52.83;96333.72;5090534;28;20024;-65
2021/12/14 08:35:24;;;;;;;7.78;5.45;;;;;;;8.91;53.48;96338.78;5088521;28;20529;-65
2021/12/14 08:37:56;;;;;;;9.68;5.50;;;;;;;7.99;56.68;96355.16;5088861;28;20063;-66
2021/12/14 08:40:37;;;;;;;8.75;4.93;;;;;;;6.48;61.46;96367.66;5088793;28;20093;-65
2021/12/14 08:43:13;;;;;;;6.13;5.32;;;;;;;7.89;58.41;96354.28;5089949;28;20093;-65
2021/12/14 08:45:49;;;;;;;6.18;5.57;;;;;;;6.99;60.01;96323.22;5089943;28;20025;-66
2021/12/14 08:48:20;;;;;;;7.05;5.13;;;;;;;8.51;56.69;96334.97;5090074;28;20095;-65
2021/12/14 08:50:56;;;;;;;5.25;4.75;;;;;;;9.47;54.82;96338.75;5088473;28;20111;-65
2021/12/14 08:53:30;;;;;;;6.10;5.15;;;;;;;10.36;53.32;96329.28;5088374;28;20450;-65
2021/12/14 08:55:58;;;;;;;4.43;4.03;;;;;;;10.73;52.49;96304.06;5089974;28;20039;-65
2021/12/14 08:58:25;;;;;;;5.53;4.30;;;;;;;10.93;49.96;96326.00;5089344;28;20028;-65
2021/12/14 09:00:55;;;;;;;4.88;4.38;;;;;;;11.04;50.67;96307.31;5088201;28;20024;-66
2021/12/14 09:03:34;;;;;;;5.97;4.50;;;;;;;11.43;50.13;96308.06;5089874;28;20016;-65
2021/12/14 09:06:11;;;;;;;5.25;4.75;;;;;;;11.73;49.23;96300.06;5088358;28;20028;-65
2021/12/14 09:08:38;;;;;;;4.15;3.75;;;;;;;11.96;48.68;96309.94;5088232;28;20028;-65
2021/12/14 09:11:08;;;;;;;3.38;3.08;;;;;;;11.89;48.03;96304.16;5088337;28;20435;-66
2021/12/14 09:13:33;;;;;;;3.70;3.40;;;;;;;11.56;48.30;96311.91;5089405;28;20036;-65
2021/12/14 09:16:04;;;;;;;5.18;3.50;;;;;;;11.27;48.61;96325.25;5088116;28;20077;-65
2021/12/14 09:18:39;;;;;;;5.40;3.20;;;;;;;11.68;48.35;96308.91;5089372;28;20012;-65
2021/12/14 09:21:10;;;;;;;3.65;3.28;;;;;;;11.99;48.17;96305.94;5089152;28;20315;-65
2021/12/14 09:23:42;;;;;;;4.22;3.05;;;;;;;12.00;48.06;96273.66;5089324;28;20174;-67
2021/12/14 09:26:15;;;;;;;3.65;3.28;;;;;;;12.33;47.59;96274.56;5088497;28;20032;-65
2021/12/14 09:28:40;;;;;;;3.60;3.30;;;;;;;12.60;47.55;96270.47;5088776;28;20016;-65
2021/12/14 09:31:09;;;;;;;6.25;3.35;;;;;;;12.75;47.34;96270.25;5088803;28;20487;-65
2021/12/14 09:33:38;;;;;;;3.15;2.90;;;;;;;11.51;48.71;96287.19;5089155;28;20027;-65
2021/12/14 09:36:11;;;;;;;2.88;2.67;;;;;;;12.24;48.79;96284.31;5088989;28;20641;-66
2021/12/14 09:38:40;;;;;;;3.22;2.92;;;;;;;12.66;47.40;96280.00;5088923;28;20245;-65
2021/12/14 09:41:10;;;;;;;3.50;3.20;;;;;;;13.36;47.14;96271.19;5086726;28;20377;-66
2021/12/14 09:43:37;;;;;;;2.92;2.70;;;;;;;13.72;46.79;96249.97;5088811;28;20036;-66
2021/12/14 09:46:06;;;;;;;3.92;3.35;;;;;;;14.08;45.99;96263.44;5089100;28;20520;-65
2021/12/14 09:48:36;;;;;;;6.13;3.30;;;;;;;14.37;45.60;96262.31;5088781;28;20458;-66
2021/12/14 09:51:07;;;;;;;2.58;2.38;;;;;;;14.11;44.47;96254.81;5089380;28;20549;-66
2021/12/14 09:53:38;;;;;;;2.25;2.05;;;;;;;12.52;48.31;96269.25;5089377;28;20088;-67
2021/12/14 09:56:04;;;;;;;1.98;1.88;;;;;;;13.60;47.06;96252.31;5088359;28;20040;-66
2021/12/14 09:58:35;;;;;;;2.25;2.15;;;;;;;14.17;46.41;96245.56;5087244;28;20092;-65
2021/12/14 10:01:10;;;;;;;2.20;1.70;;;;;;;14.24;45.65;96263.91;5087630;28;20073;-67
2021/12/14 10:03:37;;;;;;;2.20;2.10;;;;;;;12.87;48.94;96270.59;5089530;28;20040;-66
2021/12/14 10:06:08;;;;;;;2.22;2.03;;;;;;;11.93;51.76;96275.88;5091481;28;20473;-66
2021/12/14 10:08:37;;;;;;;2.53;2.30;;;;;;;10.94;54.19;96257.59;5092859;28;20255;-65
2021/12/14 10:11:25;;;;;;;2.58;1.70;;;;;;;10.31;56.66;96282.22;5090387;28;20545;-65
2021/12/14 10:13:53;;;;;;;2.85;1.90;;;;;;;10.61;56.51;96297.22;5092404;28;20028;-66
2021/12/14 10:16:19;;;;;;;2.40;2.25;;;;;;;11.49;54.60;96289.34;5092070;28;20027;-66
2021/12/14 10:19:09;;;;;;;2.55;2.22;;;;;;;11.57;53.75;96284.22;5093157;28;20020;-66
2021/12/14 10:21:40;;;;;;;2.90;2.70;;;;;;;10.33;56.32;96269.44;5091848;28;20195;-66
2021/12/14 10:24:07;;;;;;;5.63;2.50;;;;;;;10.88;55.84;96277.34;5092615;28;20028;-66
2021/12/14 10:26:43;;;;;;;3.80;3.40;;;;;;;11.58;54.54;96279.69;5089878;28;20029;-65
2021/12/14 10:29:09;;;;;;;3.75;3.15;;;;;;;12.12;52.26;96268.69;5092717;28;20020;-66
2021/12/14 10:31:41;;;;;;;3.10;2.90;;;;;;;11.42;53.39;96266.50;5093333;28;20111;-65
2021/12/14 10:34:16;;;;;;;3.25;2.55;;;;;;;12.73;51.33;96265.19;5093062;28;20012;-66
2021/12/14 10:36:46;;;;;;;2.60;2.40;;;;;;;12.12;52.00;96270.56;5092659;28;20081;-66
2021/12/14 10:39:24;;;;;;;2.88;2.67;;;;;;;13.11;50.10;96275.84;5089783;28;20020;-66
2021/12/14 10:44:46;;;;;;;2.42;2.22;;;;;;;11.62;53.11;96278.84;5091940;28;20393;-66
2021/12/14 10:47:16;;;;;;;2.33;2.13;;;;;;;12.23;51.20;96278.19;5092335;28;20024;-67
2021/12/14 10:49:42;;;;;;;3.05;2.55;;;;;;;11.70;53.55;96270.22;5090185;28;20111;-65
2021/12/14 10:52:14;;;;;;;2.92;2.63;;;;;;;11.20;54.51;96279.47;5091755;28;20035;-68
2021/12/14 10:54:40;;;;;;;;;;;;;;;11.01;56.50;96275.94;5091816;28;20389;-65
2021/12/14 10:57:12;;;;;;;3.15;2.70;;;;;;;10.60;55.59;96263.72;5092608;28;19919;-66
2021/12/14 10:59:38;;;;;;;;;;;;;;;11.12;55.48;96288.88;5091928;28;20063;-65
2021/12/14 11:02:05;;;;;;;3.97;3.58;;;;;;;11.29;55.29;96271.69;5091869;28;19928;-66
2021/12/14 11:04:51;;;;;;;3.75;3.17;;;;;;;10.99;55.94;96294.03;5090659;28;20607;-65
2021/12/14 11:07:41;;;;;;;5.70;3.72;;;;;;;11.87;53.28;96287.66;5091952;28;20016;-66
2021/12/14 11:10:12;;;;;;;4.65;3.80;;;;;;;11.34;53.98;96298.28;5090724;28;20457;-66
2021/12/14 11:12:41;;;;;;;4.75;4.35;;;;;;;12.11;52.37;96276.97;5090111;28;20101;-65
2021/12/14 11:15:14;;;;;;;5.72;3.83;;;;;;;11.63;52.66;96301.75;5082416;28;20028;-66
2021/12/14 11:20:32;;;;;;;6.57;3.20;;;;;;;10.17;56.58;96286.50;5091351;28;20484;-66
2021/12/14 11:23:21;;;;;;;4.93;3.80;;;;;;;10.31;56.65;96303.50;5091409;28;20038;-64
2021/12/14 11:25:49;;;;;;;4.13;3.45;;;;;;;11.68;54.28;96298.22;5090392;28;20389;-67
2021/12/14 11:28:40;;;;;;;3.97;3.60;;;;;;;11.66;53.41;96292.38;5091161;28;20031;-66
2021/12/14 11:31:23;;;;;;;4.07;3.67;;;;;;;12.24;52.36;96284.31;5070892;28;20490;-66
2021/12/14 11:33:54;;;;;;;3.78;3.47;;;;;;;11.65;53.00;96296.91;5070154;28;20105;-66
2021/12/14 11:36:22;;;;;;;3.92;3.63;;;;;;;11.00;55.19;96295.63;5070029;28;20064;-64
2021/12/14 11:39:25;;;;;;;3.70;3.40;;;;;;;11.75;53.72;96282.69;5070871;28;20482;-64
2021/12/14 11:41:59;;;;;;;7.38;3.55;;;;;;;11.64;53.61;96281.22;5088302;28;20055;-65
2021/12/14 11:44:40;;;;;;;3.85;2.80;;;;;;;11.09;54.63;96284.09;5090931;28;20450;-65
2021/12/14 11:47:46;;;;;;;3.25;2.95;;;;;;;10.73;55.95;96301.41;5091307;28;20024;-64
2021/12/14 11:50:34;;;;;;;3.70;3.40;;;;;;;10.61;56.65;96296.41;5090071;28;20036;-64
2021/12/14 11:53:05;;;;;;;3.73;3.30;;;;;;;11.19;54.09;96299.19;5091304;28;20035;-65
2021/12/14 11:55:55;;;;;;;3.45;3.20;;;;;;;12.13;52.89;96291.63;5090246;28;20428;-66
2021/12/14 11:58:39;;;;;;;3.40;3.20;;;;;;;12.22;52.01;96287.22;5085938;28;20027;-64
2021/12/14 12:01:04;;;;;;;3.60;3.30;;;;;;;12.46;51.16;96289.88;5082348;28;20106;-65
2021/12/14 12:03:48;;;;;;;3.53;3.22;;;;;;;11.30;54.51;96299.91;5090648;28;20536;-66
2021/12/14 12:11:50;;;;;;;3.22;2.85;;;;;;;11.88;53.91;96298.06;5089862;28;20058;-65
2021/12/14 12:14:31;;;;;;;3.40;3.10;;;;;;;11.37;53.73;96305.72;5090245;28;20035;-67
2021/12/14 12:17:10;;;;;;;3.78;3.35;;;;;;;11.11;55.00;96313.13;5089355;28;20020;-66
2021/12/14 12:19:37;;;;;;;4.25;3.63;;;;;;;11.14;54.35;96304.56;5089916;28;20362;-66
2021/12/14 12:22:15;;;;;;;4.32;3.67;;;;;;;12.07;52.50;96297.28;5089019;28;20165;-67
2021/12/14 12:24:45;;;;;;;3.60;3.30;;;;;;;10.03;56.98;96312.06;5089546;28;20039;-67
2021/12/14 12:27:30;;;;;;;4.40;4.00;;;;;;;12.05;53.36;96302.91;5083979;28;20632;-66
2021/12/14 12:30:22;;;;;;;4.20;3.90;;;;;;;11.73;52.64;96290.19;5087967;28;20031;-65
2021/12/14 12:32:48;;;;;;;4.40;4.00;;;;;;;11.77;53.84;96296.50;5088941;28;20028;-65
2021/12/14 12:35:24;;;;;;;4.53;4.03;;;;;;;10.85;55.20;96305.31;5088615;28;20362;-66
2021/12/14 12:37:50;;;;;;;4.78;4.38;;;;;;;10.70;55.93;96304.59;5088969;28;20027;-65
2021/12/14 12:40:18;;;;;;;4.90;4.50;;;;;;;10.52;56.67;96311.38;5088820;28;20028;-64
2021/12/14 12:42:44;;;;;;;5.05;4.63;;;;;;;11.67;52.67;96293.97;5088280;28;20425;-65
2021/12/14 12:45:33;;;;;;;5.57;4.93;;;;;;;10.67;55.85;96316.59;5090249;28;20117;-65